Time;durP1;ratioP1;P1;durP2;ratioP2;P2;SDS_P1;SDS_P2;PMS_P1;PMS_P2;Temp;Humidity;BMP_temperature;BMP_pressure;BME280_temperature;BME280_humidity;BME280_pressure;Samples;Min_cycle;Max_cycle;Signal;HPM_P1;HPM_P2
2021/10/02 00:31:24;;;;;;;3.77;3.00;;;;;;;10.02;100.00;97291.72;5051830;28;20186;-77
2021/10/02 00:45:06;;;;;;;5.40;3.40;;;;;;;10.05;100.00;97286.19;5051848;28;20205;-77
2021/10/02 00:47:35;;;;;;;4.57;3.67;;;;;;;9.95;100.00;97296.66;5051525;28;20193;-76
2021/10/02 00:50:05;;;;;;;4.13;3.73;;;;;;;9.65;100.00;97289.53;5052003;28;20193;-76
2021/10/02 00:52:32;;;;;;;4.37;3.97;;;;;;;9.63;100.00;97283.56;5051487;28;20244;-77
2021/10/02 00:55:00;;;;;;;3.90;3.57;;;;;;;9.34;100.00;97284.19;5051567;28;20734;-77
2021/10/02 00:57:28;;;;;;;3.10;2.90;;;;;;;9.37;100.00;97280.50;5051632;28;20197;-77
2021/10/02 00:59:56;;;;;;;4.93;3.63;;;;;;;9.36;100.00;97278.84;5051683;28;20697;-77
2021/10/02 01:02:28;;;;;;;6.77;4.03;;;;;;;9.27;100.00;97281.25;5051379;28;20198;-76
2021/10/02 01:05:09;;;;;;;5.57;4.67;;;;;;;9.17;100.00;97275.06;5051546;28;20213;-77
2021/10/02 01:07:42;;;;;;;4.97;4.30;;;;;;;9.16;100.00;97273.41;5051207;28;20233;-77
2021/10/02 01:10:21;;;;;;;7.77;3.87;;;;;;;9.05;100.00;97276.91;5051564;28;20196;-78
2021/10/02 01:13:07;;;;;;;9.87;4.37;;;;;;;9.17;100.00;97269.00;5042716;28;20882;-77
2021/10/02 01:15:43;;;;;;;4.37;3.97;;;;;;;9.08;100.00;97264.53;5031446;28;20194;-76
2021/10/02 01:18:16;;;;;;;3.87;3.57;;;;;;;9.14;100.00;97274.50;5027906;28;20205;-77
2021/10/02 01:20:59;;;;;;;4.33;3.53;;;;;;;8.95;100.00;97267.31;5011719;28;20187;-77
2021/10/02 01:23:44;;;;;;;3.63;3.33;;;;;;;8.84;100.00;97259.47;5011824;28;20184;-77
2021/10/02 01:26:27;;;;;;;3.53;3.07;;;;;;;8.94;100.00;97253.38;5011512;28;20215;-77
2021/10/02 01:28:57;;;;;;;4.40;3.90;;;;;;;9.06;100.00;97262.00;5011782;28;20278;-76
2021/10/02 01:31:31;;;;;;;3.93;3.27;;;;;;;9.00;100.00;97260.72;5011318;28;20194;-77
2021/10/02 01:34:07;;;;;;;4.03;3.50;;;;;;;8.76;100.00;97255.69;5011641;28;20195;-76
2021/10/02 01:36:46;;;;;;;4.00;3.13;;;;;;;8.82;100.00;97254.34;5014795;28;20180;-77
2021/10/02 01:47:38;;;;;;;5.07;3.30;;;;;;;8.87;100.00;97254.81;5014947;28;20218;-77
2021/10/02 01:50:08;;;;;;;9.90;3.40;;;;;;;8.60;100.00;97255.22;5015179;28;20290;-76
2021/10/02 01:52:39;;;;;;;4.53;3.90;;;;;;;8.61;100.00;97256.91;5014867;28;20199;-76
2021/10/02 01:55:08;;;;;;;4.43;3.73;;;;;;;8.49;100.00;97252.66;5015369;28;20198;-77
2021/10/02 01:57:40;;;;;;;5.13;3.80;;;;;;;8.49;100.00;97256.09;5014633;28;20596;-77
2021/10/02 02:00:10;;;;;;;3.63;3.17;;;;;;;8.44;100.00;97254.78;5014749;28;20187;-76
2021/10/02 02:02:41;;;;;;;4.70;3.70;;;;;;;8.50;100.00;97254.31;5015430;28;20192;-76
2021/10/02 02:05:12;;;;;;;5.20;3.90;;;;;;;8.56;100.00;97264.31;5014802;28;20265;-76
2021/10/02 02:07:45;;;;;;;3.40;3.10;;;;;;;8.52;100.00;97261.09;5013896;28;20227;-76
2021/10/02 02:10:13;;;;;;;5.53;3.40;;;;;;;8.40;100.00;97258.59;5014792;28;20242;-76
2021/10/02 02:12:43;;;;;;;3.97;3.67;;;;;;;8.30;100.00;97261.91;5014788;28;20203;-76
2021/10/02 02:15:14;;;;;;;4.50;4.10;;;;;;;8.37;100.00;97258.81;5014914;28;20200;-77
2021/10/02 02:17:45;;;;;;;4.47;3.23;;;;;;;8.39;100.00;97263.00;5014112;28;20198;-76
2021/10/02 02:20:16;;;;;;;7.57;4.00;;;;;;;8.27;100.00;97256.91;5014617;28;20188;-76
2021/10/02 02:22:44;;;;;;;4.70;3.83;;;;;;;8.30;100.00;97254.03;5014261;28;20194;-76
2021/10/02 02:25:11;;;;;;;5.47;3.93;;;;;;;8.13;100.00;97251.91;5014352;28;20199;-76
2021/10/02 02:27:38;;;;;;;5.17;3.83;;;;;;;8.16;100.00;97238.56;5014099;28;20206;-77
2021/10/02 02:30:07;;;;;;;5.03;4.27;;;;;;;7.98;100.00;97248.69;5014189;28;20203;-76
2021/10/02 02:32:37;;;;;;;4.30;3.90;;;;;;;8.06;100.00;97240.25;5014120;28;20204;-77
2021/10/02 02:35:05;;;;;;;8.70;5.80;;;;;;;8.06;100.00;97251.53;5014469;28;20206;-76
2021/10/02 02:37:32;;;;;;;6.90;6.20;;;;;;;8.01;100.00;97247.63;5014384;28;20580;-76
2021/10/02 02:40:00;;;;;;;6.03;4.97;;;;;;;7.85;100.00;97240.94;5014377;28;20200;-76
2021/10/02 02:42:27;;;;;;;5.37;4.70;;;;;;;7.89;100.00;97240.72;5013665;28;20286;-76
2021/10/02 02:44:54;;;;;;;4.70;4.17;;;;;;;7.92;100.00;97243.09;5014078;28;20751;-76
2021/10/02 02:47:24;;;;;;;6.40;3.27;;;;;;;7.81;100.00;97230.84;5013136;28;20254;-76
2021/10/02 02:50:00;;;;;;;4.93;3.60;;;;;;;8.03;100.00;97230.00;5014069;28;20286;-78
2021/10/02 02:52:38;;;;;;;4.03;2.43;;;;;;;8.21;100.00;97231.22;5013858;28;20198;-76
2021/10/02 02:55:08;;;;;;;5.43;3.17;;;;;;;8.34;100.00;97234.50;5013956;28;20191;-76
2021/10/02 02:57:41;;;;;;;5.93;3.10;;;;;;;8.29;100.00;97241.91;5013970;28;20202;-76
2021/10/02 03:00:13;;;;;;;3.20;2.90;;;;;;;8.28;100.00;97245.50;5013528;28;20197;-76
2021/10/02 03:02:43;;;;;;;4.30;4.00;;;;;;;8.25;100.00;97240.47;5013630;28;20644;-76
2021/10/02 03:05:14;;;;;;;8.37;5.90;;;;;;;8.09;100.00;97237.38;5013626;28;20199;-76
2021/10/02 03:07:49;;;;;;;9.87;5.03;;;;;;;7.89;100.00;97240.72;5013316;28;20238;-76
2021/10/02 03:10:18;;;;;;;4.33;3.70;;;;;;;8.07;100.00;97236.66;5013496;28;20274;-76
2021/10/02 03:12:48;;;;;;;5.53;2.60;;;;;;;8.21;100.00;97231.22;5013701;28;20235;-76
2021/10/02 03:15:18;;;;;;;5.20;3.53;;;;;;;8.39;100.00;97225.50;5013711;28;20636;-76
2021/10/02 03:17:48;;;;;;;11.90;8.93;;;;;;;8.42;100.00;97238.38;5013230;28;20209;-77
2021/10/02 03:20:19;;;;;;;8.43;6.07;;;;;;;8.21;100.00;97236.44;5013714;28;20191;-76
2021/10/02 03:22:50;;;;;;;5.50;3.83;;;;;;;7.85;100.00;97234.88;5022507;28;20692;-77
2021/10/02 03:25:18;;;;;;;18.27;13.10;;;;;;;7.82;100.00;97233.31;5033276;28;20202;-77
2021/10/02 03:27:47;;;;;;;6.20;5.67;;;;;;;7.82;100.00;97227.25;5033055;28;20195;-78
2021/10/02 03:30:15;;;;;;;5.30;4.73;;;;;;;7.84;100.00;97234.06;5032638;28;20289;-77
2021/10/02 03:32:44;;;;;;;15.30;14.00;;;;;;;7.79;100.00;97230.09;5033088;28;20203;-77
2021/10/02 03:35:12;;;;;;;6.33;4.53;;;;;;;7.67;100.00;97223.22;5032875;28;20217;-77
2021/10/02 03:37:41;;;;;;;4.17;3.87;;;;;;;7.74;100.00;97225.25;5032301;28;20685;-77
2021/10/02 03:40:09;;;;;;;5.20;4.73;;;;;;;7.95;100.00;97235.00;5032943;28;20268;-77
2021/10/02 03:42:43;;;;;;;7.87;7.17;;;;;;;7.86;100.00;97234.78;5032519;28;20199;-77
2021/10/02 03:45:12;;;;;;;10.97;9.53;;;;;;;7.72;100.00;97234.16;5032713;28;20283;-77
2021/10/02 03:47:39;;;;;;;10.63;5.00;;;;;;;7.55;100.00;97230.19;5031986;28;20230;-78
2021/10/02 03:50:07;;;;;;;3.73;3.07;;;;;;;7.44;100.00;97219.72;5032514;28;20203;-77
2021/10/02 03:52:34;;;;;;;4.80;3.30;;;;;;;7.68;100.00;97220.47;5032358;28;20205;-77
2021/10/02 03:55:04;;;;;;;6.53;3.60;;;;;;;7.68;100.00;97223.09;5032204;28;20674;-77
2021/10/02 03:57:31;;;;;;;4.53;3.20;;;;;;;7.56;100.00;97217.00;5032417;28;20602;-77
2021/10/02 03:59:58;;;;;;;3.27;2.97;;;;;;;7.61;100.00;97214.03;5031509;28;20194;-77
2021/10/02 04:02:26;;;;;;;4.83;2.70;;;;;;;7.66;100.00;97218.94;5032150;28;20198;-77
2021/10/02 04:04:53;;;;;;;3.30;2.93;;;;;;;7.67;100.00;97213.56;5032367;28;20234;-77
2021/10/02 04:07:20;;;;;;;3.87;3.37;;;;;;;7.48;100.00;97219.38;5031551;28;20321;-78
2021/10/02 04:09:47;;;;;;;3.97;3.30;;;;;;;7.64;100.00;97219.03;5032407;28;20208;-77
2021/10/02 04:12:16;;;;;;;5.67;2.93;;;;;;;7.63;100.00;97222.63;5032312;28;20198;-78
2021/10/02 04:14:43;;;;;;;3.47;3.17;;;;;;;7.63;100.00;97218.22;5031630;28;20686;-77
2021/10/02 04:17:10;;;;;;;3.00;2.53;;;;;;;7.85;100.00;97227.84;5032115;28;20584;-77
2021/10/02 04:19:38;;;;;;;6.50;2.60;;;;;;;7.86;100.00;97224.31;5032005;28;20213;-77
2021/10/02 04:22:05;;;;;;;3.83;3.20;;;;;;;7.61;100.00;97224.50;5031571;28;20201;-77
2021/10/02 04:24:32;;;;;;;7.90;2.83;;;;;;;7.75;100.00;97216.44;5031936;28;20198;-77
2021/10/02 04:26:59;;;;;;;4.33;3.90;;;;;;;7.97;100.00;97218.25;5031608;28;20218;-77
2021/10/02 04:29:28;;;;;;;6.03;3.50;;;;;;;8.04;100.00;97216.81;5032161;28;20202;-77
2021/10/02 04:31:56;;;;;;;7.47;4.67;;;;;;;7.95;100.00;97220.13;5031520;28;20202;-77
2021/10/02 04:34:23;;;;;;;8.43;5.03;;;;;;;7.90;100.00;97224.03;5016177;28;20554;-77
2021/10/02 04:36:51;;;;;;;8.10;4.80;;;;;;;7.98;100.00;97214.66;5012030;28;20199;-77
2021/10/02 04:39:18;;;;;;;5.47;4.00;;;;;;;8.13;100.00;97223.09;5011757;28;20207;-77
2021/10/02 04:41:45;;;;;;;9.60;6.97;;;;;;;8.26;100.00;97223.81;5011851;28;20203;-76
2021/10/02 04:44:13;;;;;;;8.37;5.20;;;;;;;8.36;100.00;97229.16;5012025;28;20576;-76
2021/10/02 04:46:41;;;;;;;5.50;3.27;;;;;;;8.30;100.00;97233.09;5011697;28;20229;-76
2021/10/02 04:49:09;;;;;;;3.63;3.23;;;;;;;8.35;100.00;97227.50;5011622;28;20702;-75
2021/10/02 04:51:37;;;;;;;3.60;3.30;;;;;;;8.17;100.00;97229.75;5011997;28;20668;-76
2021/10/02 04:54:04;;;;;;;4.07;3.47;;;;;;;8.53;100.00;97227.84;5021668;28;20640;-76
2021/10/02 04:56:32;;;;;;;3.97;3.67;;;;;;;8.50;100.00;97228.09;5013180;28;20656;-76
2021/10/02 04:58:59;;;;;;;4.57;4.00;;;;;;;8.21;100.00;97233.81;5011649;28;20250;-75
2021/10/02 05:01:27;;;;;;;6.23;4.27;;;;;;;8.43;100.00;97227.75;5011588;28;20254;-75
2021/10/02 05:03:58;;;;;;;5.43;2.87;;;;;;;8.60;100.00;97239.50;5019448;28;20643;-75
2021/10/02 05:06:25;;;;;;;4.77;3.30;;;;;;;8.71;100.00;97236.03;5028668;28;20734;-75
2021/10/02 05:08:52;;;;;;;7.03;6.23;;;;;;;8.89;100.00;97233.72;5025449;28;20198;-76
2021/10/02 05:11:19;;;;;;;8.33;6.30;;;;;;;9.02;100.00;97234.38;5019732;28;20215;-76
2021/10/02 05:13:46;;;;;;;16.60;13.27;;;;;;;9.04;100.00;97241.16;5018863;28;20660;-77
2021/10/02 05:16:13;;;;;;;8.80;6.63;;;;;;;9.19;100.00;97240.88;5015426;28;20203;-76
2021/10/02 05:18:41;;;;;;;8.73;5.87;;;;;;;9.15;100.00;97242.09;5015508;28;20250;-76
2021/10/02 05:21:10;;;;;;;7.33;4.87;;;;;;;9.29;100.00;97233.91;5021993;28;20201;-76
2021/10/02 05:23:37;;;;;;;6.00;4.83;;;;;;;9.29;100.00;97247.84;5036572;28;20206;-76
2021/10/02 05:26:04;;;;;;;5.27;3.87;;;;;;;9.38;100.00;97237.53;5054987;28;20194;-76
2021/10/02 05:28:31;;;;;;;6.63;4.90;;;;;;;9.39;100.00;97240.06;5035541;28;20208;-76
2021/10/02 05:30:59;;;;;;;8.70;5.37;;;;;;;9.51;100.00;97239.03;5030605;28;20214;-76
2021/10/02 05:33:26;;;;;;;4.50;4.07;;;;;;;9.62;100.00;97243.38;5034892;28;20199;-76
2021/10/02 05:35:53;;;;;;;3.73;3.40;;;;;;;9.69;100.00;97241.88;5034942;28;20202;-77
2021/10/02 05:38:22;;;;;;;4.00;3.33;;;;;;;9.70;100.00;97245.38;5035052;28;20297;-76
2021/10/02 05:40:49;;;;;;;4.60;3.27;;;;;;;9.79;100.00;97239.31;5034881;28;20210;-76
2021/10/02 05:43:17;;;;;;;4.17;2.67;;;;;;;9.79;100.00;97247.19;5034933;28;20213;-76
2021/10/02 05:45:44;;;;;;;3.23;2.40;;;;;;;9.72;100.00;97254.75;5018029;28;20215;-76
2021/10/02 05:48:11;;;;;;;4.43;2.63;;;;;;;9.73;100.00;97245.09;5014851;28;20223;-76
2021/10/02 05:50:39;;;;;;;5.47;2.70;;;;;;;9.74;100.00;97246.78;5015000;28;20199;-76
2021/10/02 05:53:06;;;;;;;3.13;2.70;;;;;;;9.82;100.00;97243.50;5015133;28;20742;-76
2021/10/02 05:55:35;;;;;;;3.67;3.03;;;;;;;9.91;100.00;97247.97;5015280;28;20254;-77
2021/10/02 05:58:02;;;;;;;3.33;2.73;;;;;;;9.88;100.00;97242.97;5014795;28;20196;-76
2021/10/02 06:00:30;;;;;;;4.23;2.40;;;;;;;9.97;100.00;97250.06;5017206;28;20208;-77
2021/10/02 06:02:59;;;;;;;3.07;2.80;;;;;;;10.05;100.00;97245.00;5014621;28;20680;-76
2021/10/02 06:05:27;;;;;;;4.43;2.33;;;;;;;10.11;100.00;97252.34;5014656;28;20199;-77
2021/10/02 06:07:55;;;;;;;3.43;2.70;;;;;;;10.21;100.00;97255.00;5014474;28;20223;-78
2021/10/02 06:10:22;;;;;;;2.80;2.50;;;;;;;10.29;100.00;97254.38;5014697;28;20207;-77
2021/10/02 06:12:53;;;;;;;6.40;3.00;;;;;;;10.49;100.00;97256.09;5014237;28;20200;-77
2021/10/02 06:15:21;;;;;;;4.83;2.73;;;;;;;10.51;100.00;97256.81;5014520;28;20191;-77
2021/10/02 06:17:48;;;;;;;6.83;2.90;;;;;;;10.46;100.00;97259.03;5014193;28;20290;-77
2021/10/02 06:20:16;;;;;;;4.80;2.47;;;;;;;10.56;100.00;97259.84;5016780;28;20234;-76
2021/10/02 06:22:43;;;;;;;4.93;3.40;;;;;;;10.66;100.00;97260.72;5024701;28;20571;-77
2021/10/02 06:25:11;;;;;;;4.90;2.03;;;;;;;10.73;100.00;97268.06;5036883;28;20224;-77
2021/10/02 06:27:39;;;;;;;3.20;2.50;;;;;;;10.80;100.00;97272.66;5053593;28;20228;-76
2021/10/02 06:30:09;;;;;;;3.30;2.40;;;;;;;11.04;100.00;97276.72;5054070;28;20245;-77
2021/10/02 06:32:37;;;;;;;3.10;2.80;;;;;;;11.17;100.00;97272.03;5054054;28;20182;-77
2021/10/02 06:35:05;;;;;;;3.00;2.20;;;;;;;11.36;100.00;97281.72;5054018;28;20636;-78
2021/10/02 06:37:32;;;;;;;7.37;2.53;;;;;;;11.30;100.00;97290.19;5053255;28;20198;-78
2021/10/02 06:39:59;;;;;;;5.03;2.33;;;;;;;11.32;100.00;97288.22;5054028;28;20227;-77
2021/10/02 06:42:26;;;;;;;3.27;2.30;;;;;;;11.39;100.00;97291.97;5053724;28;20274;-78
2021/10/02 06:44:53;;;;;;;3.57;2.33;;;;;;;11.32;100.00;97283.78;5053424;28;20213;-77
2021/10/02 06:47:23;;;;;;;4.27;2.50;;;;;;;11.46;100.00;97285.16;5053570;28;20225;-77
2021/10/02 06:49:51;;;;;;;2.10;1.90;;;;;;;11.67;100.00;97290.28;5053539;28;20671;-77
2021/10/02 06:52:18;;;;;;;3.53;2.47;;;;;;;11.80;100.00;97298.72;5053390;28;20197;-78
2021/10/02 06:54:45;;;;;;;4.40;2.20;;;;;;;11.96;100.00;97292.09;5035072;28;20207;-77
2021/10/02 06:57:13;;;;;;;4.07;2.33;;;;;;;12.30;100.00;97295.06;5018592;28;20199;-77
2021/10/02 06:59:40;;;;;;;7.23;2.37;;;;;;;12.47;100.00;97288.16;5013999;28;20204;-77
2021/10/02 07:02:07;;;;;;;1.90;1.80;;;;;;;12.64;100.00;97292.66;5032473;28;20302;-77
2021/10/02 07:04:37;;;;;;;2.40;2.20;;;;;;;12.76;100.00;97295.97;5053220;28;20198;-78
2021/10/02 07:07:05;;;;;;;4.27;2.40;;;;;;;12.89;100.00;97299.09;5053266;28;20241;-77
2021/10/02 07:09:32;;;;;;;3.10;2.00;;;;;;;12.68;100.00;97301.97;5053427;28;20238;-78
2021/10/02 07:11:59;;;;;;;2.33;2.10;;;;;;;12.72;100.00;97305.16;5053074;28;20201;-77
2021/10/02 07:14:26;;;;;;;7.27;3.67;;;;;;;12.58;100.00;97303.81;5053278;28;20295;-78
2021/10/02 07:16:53;;;;;;;4.03;2.20;;;;;;;12.68;100.00;97303.75;5053034;28;20205;-77
2021/10/02 07:19:21;;;;;;;2.60;2.37;;;;;;;12.96;100.00;97304.59;5053411;28;20571;-79
2021/10/02 07:21:49;;;;;;;5.43;2.20;;;;;;;13.38;100.00;97302.25;5052716;28;20211;-78
2021/10/02 07:24:17;;;;;;;5.43;2.30;;;;;;;13.54;100.00;97310.34;5053305;28;20196;-78
2021/10/02 07:26:45;;;;;;;2.40;2.20;;;;;;;13.75;100.00;97319.72;5052838;28;20658;-78
2021/10/02 07:29:12;;;;;;;9.20;3.23;;;;;;;13.98;100.00;97320.91;5052610;28;20211;-78
2021/10/02 07:31:40;;;;;;;3.70;3.30;;;;;;;14.10;100.00;97318.84;5052760;28;20293;-78
2021/10/02 07:34:07;;;;;;;7.37;2.77;;;;;;;14.32;100.00;97314.03;5052769;28;20681;-78
2021/10/02 07:36:34;;;;;;;3.80;2.33;;;;;;;14.63;100.00;97317.03;5052720;28;20194;-78
2021/10/02 07:39:03;;;;;;;8.37;7.60;;;;;;;14.84;100.00;97317.47;5046272;28;20759;-78
2021/10/02 07:44:06;;;;;;;2.13;1.97;;;;;;;14.71;100.00;97323.19;5126434;22;20289;-78
2021/10/02 07:46:35;;;;;;;4.07;2.57;;;;;;;14.96;100.00;97321.50;5073581;28;20208;-77
2021/10/02 07:49:03;;;;;;;3.90;2.40;;;;;;;15.23;100.00;97325.69;5088549;28;20291;-77
2021/10/02 07:51:31;;;;;;;4.27;2.17;;;;;;;15.30;100.00;97325.03;5077232;28;20280;-78
2021/10/02 07:53:58;;;;;;;3.70;2.67;;;;;;;15.21;100.00;97318.91;5072369;28;20561;-78
2021/10/02 07:56:27;;;;;;;6.33;2.43;;;;;;;15.16;100.00;97319.38;5080941;28;20212;-78
2021/10/02 07:58:55;;;;;;;2.20;2.10;;;;;;;14.93;100.00;97318.34;5072490;28;20192;-78
2021/10/02 08:01:23;;;;;;;8.47;5.47;;;;;;;14.73;100.00;97321.22;5072465;28;20201;-77
2021/10/02 08:03:52;;;;;;;8.13;2.63;;;;;;;14.70;100.00;97316.25;5072449;28;20197;-79
2021/10/02 08:06:22;;;;;;;6.57;2.33;;;;;;;15.25;100.00;97320.25;5072091;28;20197;-78
2021/10/02 08:08:51;;;;;;;4.27;2.03;;;;;;;15.89;100.00;97325.78;5071878;28;20301;-77
2021/10/02 08:11:18;;;;;;;4.60;1.97;;;;;;;15.45;100.00;97331.38;5071899;28;20283;-77
2021/10/02 08:13:47;;;;;;;3.87;2.00;;;;;;;15.16;100.00;97324.66;5072150;28;20197;-77
2021/10/02 08:16:16;;;;;;;3.57;2.10;;;;;;;15.44;100.00;97313.81;5077166;28;20208;-77
2021/10/02 08:18:45;;;;;;;4.00;2.20;;;;;;;15.30;100.00;97307.31;5083961;28;20200;-78
2021/10/02 08:21:14;;;;;;;7.60;3.37;;;;;;;15.30;100.00;97315.25;5092108;28;20204;-77
2021/10/02 08:23:42;;;;;;;2.87;2.60;;;;;;;15.16;100.00;97316.72;5092450;28;20223;-77
2021/10/02 08:26:14;;;;;;;4.03;2.93;;;;;;;15.22;100.00;97323.22;5091800;28;20669;-77
2021/10/02 08:28:45;;;;;;;6.33;2.07;;;;;;;15.11;100.00;97323.50;5092469;28;20204;-78
2021/10/02 08:31:15;;;;;;;1.73;1.60;;;;;;;15.11;100.00;97321.69;5091751;28;20189;-78
2021/10/02 08:33:42;;;;;;;2.33;1.83;;;;;;;14.85;100.00;97324.41;5092050;28;20241;-78
2021/10/02 08:36:10;;;;;;;2.67;1.90;;;;;;;15.25;100.00;97322.88;5085098;28;20244;-77
2021/10/02 08:38:37;;;;;;;2.40;2.20;;;;;;;16.00;100.00;97320.16;5091963;28;20188;-79
2021/10/02 08:41:06;;;;;;;2.43;1.70;;;;;;;16.67;100.00;97321.69;5091667;28;20197;-80
2021/10/02 08:43:34;;;;;;;7.43;2.47;;;;;;;17.23;100.00;97323.28;5092077;28;20239;-79
2021/10/02 08:46:02;;;;;;;3.10;2.20;;;;;;;17.45;100.00;97323.50;5084129;28;20230;-80
2021/10/02 08:48:31;;;;;;;5.50;1.83;;;;;;;16.71;100.00;97321.16;5077675;28;20224;-80
2021/10/02 08:51:03;;;;;;;4.53;2.10;;;;;;;17.32;100.00;97322.25;5071645;28;20203;-80
2021/10/02 08:53:33;;;;;;;3.90;2.30;;;;;;;17.67;100.00;97320.03;5071804;28;20206;-80
2021/10/02 08:56:02;;;;;;;3.60;2.20;;;;;;;17.35;100.00;97321.06;5071358;28;20295;-80
2021/10/02 08:58:29;;;;;;;3.97;1.90;;;;;;;17.41;100.00;97320.34;5071642;28;20196;-80
2021/10/02 09:00:59;;;;;;;4.13;2.10;;;;;;;17.01;100.00;97313.47;5071804;28;20208;-80
2021/10/02 09:03:27;;;;;;;3.20;2.50;;;;;;;16.68;100.00;97310.91;5071443;28;20201;-80
2021/10/02 09:05:56;;;;;;;7.13;2.10;;;;;;;16.35;100.00;97313.66;5071500;28;20279;-81
2021/10/02 09:08:23;;;;;;;2.00;1.80;;;;;;;16.30;100.00;97313.31;5071728;28;20311;-81
2021/10/02 09:10:51;;;;;;;2.03;1.83;;;;;;;16.65;100.00;97305.91;5071097;28;20211;-81
2021/10/02 09:13:18;;;;;;;4.67;2.00;;;;;;;16.90;100.00;97304.03;5071420;28;20200;-81
2021/10/02 09:15:45;;;;;;;3.37;2.50;;;;;;;17.47;100.00;97305.56;5071335;28;20216;-80
2021/10/02 09:18:12;;;;;;;2.70;2.00;;;;;;;17.48;100.00;97309.84;5071658;28;20196;-80
2021/10/02 09:20:40;;;;;;;3.60;2.10;;;;;;;17.35;100.00;97302.44;5071178;28;20200;-79
2021/10/02 09:23:10;;;;;;;2.43;1.70;;;;;;;15.81;100.00;97309.91;5071132;28;20553;-80
2021/10/02 09:25:46;;;;;;;2.00;1.70;;;;;;;16.97;100.00;97309.47;5071281;28;20188;-81
2021/10/02 09:28:15;;;;;;;3.67;1.97;;;;;;;17.09;100.00;97297.47;5071315;28;20219;-81
2021/10/02 09:30:45;;;;;;;4.47;1.87;;;;;;;17.02;100.00;97297.34;5070966;28;20194;-81
2021/10/02 09:33:14;;;;;;;4.90;2.37;;;;;;;18.14;100.00;97289.72;5071408;28;20285;-79
2021/10/02 09:35:43;;;;;;;2.33;1.70;;;;;;;18.82;100.00;97287.84;5071130;28;20200;-80
2021/10/02 09:38:14;;;;;;;1.77;1.50;;;;;;;19.41;100.00;97281.56;5071259;28;20197;-80
2021/10/02 09:40:48;;;;;;;5.20;2.13;;;;;;;19.11;100.00;97284.31;5071476;28;20640;-80
2021/10/02 09:43:15;;;;;;;3.73;1.83;;;;;;;19.92;100.00;97284.13;5071201;28;20237;-80
2021/10/02 09:45:43;;;;;;;3.40;1.60;;;;;;;19.38;100.00;97280.09;5070799;28;20744;-80
2021/10/02 09:48:14;;;;;;;1.83;1.73;;;;;;;18.82;100.00;97279.03;5071089;28;20232;-81
2021/10/02 09:50:43;;;;;;;2.50;1.70;;;;;;;17.68;100.00;97278.31;5071434;28;20201;-79
2021/10/02 09:53:13;;;;;;;2.27;1.53;;;;;;;18.24;100.00;97279.66;5071148;28;20201;-81
2021/10/02 09:55:44;;;;;;;4.83;1.60;;;;;;;18.53;100.00;97273.53;5070787;28;20182;-80
2021/10/02 09:58:13;;;;;;;1.60;1.50;;;;;;;18.11;100.00;97268.81;5074594;28;20185;-79
2021/10/02 10:00:42;;;;;;;4.20;2.53;;;;;;;17.38;100.00;97267.56;5083260;28;20200;-80
2021/10/02 10:03:11;;;;;;;2.77;1.77;;;;;;;17.18;100.00;97266.38;5078968;28;20231;-80
2021/10/02 10:05:40;;;;;;;4.93;2.30;;;;;;;17.24;100.00;97266.50;5083689;28;20204;-80
2021/10/02 10:08:10;;;;;;;3.63;2.27;;;;;;;18.06;100.00;97257.91;5086675;28;20596;-80
2021/10/02 10:10:40;;;;;;;3.20;2.90;;;;;;;17.96;100.00;97254.66;5082472;28;20201;-81
2021/10/02 10:13:12;;;;;;;3.90;1.80;;;;;;;17.60;100.00;97263.25;5094420;28;20203;-79
2021/10/02 10:15:43;;;;;;;2.50;1.87;;;;;;;17.49;100.00;97251.22;5075040;28;20197;-80
2021/10/02 10:18:13;;;;;;;3.23;2.23;;;;;;;18.81;100.00;97251.59;5074387;28;20201;-80
2021/10/02 10:20:43;;;;;;;3.27;2.27;;;;;;;18.83;100.00;97252.22;5087135;28;20657;-81
2021/10/02 10:23:12;;;;;;;2.73;1.90;;;;;;;18.11;100.00;97257.34;5079810;28;20200;-80
2021/10/02 10:25:59;;;;;;;2.60;2.27;;;;;;;18.62;100.00;97246.78;5080352;28;20653;-80
2021/10/02 10:28:29;;;;;;;5.17;3.10;;;;;;;19.08;100.00;97244.69;5075181;28;20703;-80
2021/10/02 10:31:10;;;;;;;5.93;3.43;;;;;;;18.57;100.00;97242.03;5089433;28;20200;-80
2021/10/02 10:33:39;;;;;;;3.97;2.60;;;;;;;18.33;100.00;97239.66;5085846;28;20764;-81
2021/10/02 10:36:07;;;;;;;4.87;2.00;;;;;;;19.01;100.00;97239.31;5082232;28;20244;-80
2021/10/02 10:38:35;;;;;;;2.03;1.83;;;;;;;19.11;100.00;97236.34;5072616;28;20197;-81
2021/10/02 10:41:07;;;;;;;7.27;2.30;;;;;;;18.38;100.00;97243.41;5076374;28;20626;-80
2021/10/02 10:43:36;;;;;;;3.90;2.20;;;;;;;18.14;100.00;97236.50;5081364;28;20711;-81
2021/10/02 10:46:05;;;;;;;1.90;1.80;;;;;;;17.37;100.00;97241.19;5081555;28;20197;-81
2021/10/02 10:48:33;;;;;;;3.83;2.30;;;;;;;17.65;100.00;97231.63;5087436;28;20227;-82
2021/10/02 10:51:02;;;;;;;5.97;2.63;;;;;;;17.28;100.00;97230.63;5092105;28;20192;-81
2021/10/02 10:53:36;;;;;;;3.00;1.70;;;;;;;18.63;100.00;97225.28;5082953;28;20208;-82
2021/10/02 10:56:06;;;;;;;3.03;1.90;;;;;;;18.95;100.00;97224.09;5077170;28;20337;-81
2021/10/02 10:58:34;;;;;;;3.53;1.90;;;;;;;18.88;100.00;97233.03;5073186;28;20193;-82
2021/10/02 11:01:03;;;;;;;4.67;2.60;;;;;;;18.67;100.00;97225.75;5073241;28;20580;-82
2021/10/02 11:04:35;;;;;;;;;;;;;;;;;;;;;
2021/10/02 11:08:03;;;;;;;2.63;2.17;;;;;;;18.96;100.00;97217.75;4928730;29;20218;-83
2021/10/02 11:13:56;;;;;;;5.47;3.80;;;;;;;18.17;100.00;97220.19;5233853;22;20672;-80
2021/10/02 11:16:35;;;;;;;21.27;14.10;;;;;;;18.35;100.00;97216.34;5052904;28;20211;-80
2021/10/02 11:19:04;;;;;;;14.77;11.07;;;;;;;19.37;100.00;97208.31;5034365;28;20198;-80
2021/10/02 11:21:31;;;;;;;7.23;2.87;;;;;;;19.21;100.00;97214.72;5032913;28;20221;-80
2021/10/02 11:24:07;;;;;;;2.47;2.27;;;;;;;19.67;100.00;97201.84;5033283;28;20204;-80
2021/10/02 11:26:42;;;;;;;2.37;1.87;;;;;;;20.13;100.00;97209.34;5033429;28;20269;-80
2021/10/02 11:29:27;;;;;;;2.50;1.83;;;;;;;19.90;100.00;97196.25;5032910;28;20207;-81
2021/10/02 11:32:33;;;;;;;2.20;2.00;;;;;;;19.50;100.00;97205.78;5032764;28;20179;-80
2021/10/02 11:35:12;;;;;;;1.77;1.60;;;;;;;19.37;100.00;97202.97;5033087;28;20274;-80
2021/10/02 11:37:48;;;;;;;3.77;2.53;;;;;;;19.03;100.00;97196.50;5321629;22;20422;-82
2021/10/02 11:40:49;;;;;;;8.73;7.80;;;;;;;19.04;100.00;97192.81;5018501;28;20214;-82
2021/10/02 11:43:24;;;;;;;1.93;1.80;;;;;;;19.17;100.00;97194.78;5022107;28;20206;-82
2021/10/02 11:45:59;;;;;;;2.60;1.60;;;;;;;19.23;100.00;97194.88;5012992;28;20200;-82
2021/10/02 11:48:35;;;;;;;3.13;1.60;;;;;;;19.25;100.00;97186.66;5021781;28;20217;-82
2021/10/02 11:53:43;;;;;;;3.07;2.00;;;;;;;18.66;100.00;97187.66;5554370;23;20294;-82
2021/10/02 11:56:13;;;;;;;3.70;3.23;;;;;;;18.79;100.00;97184.34;5051686;28;20704;-84
2021/10/02 11:58:42;;;;;;;2.67;2.47;;;;;;;18.86;100.00;97182.59;5043392;28;20256;-84
2021/10/02 12:01:18;;;;;;;2.47;2.10;;;;;;;18.85;100.00;97180.13;5032504;28;20238;-83
2021/10/02 12:03:45;;;;;;;3.33;2.10;;;;;;;18.75;100.00;97181.25;5032053;28;20215;-84
2021/10/02 12:06:12;;;;;;;2.70;1.60;;;;;;;19.09;100.00;97177.09;5032856;28;20700;-83
2021/10/02 12:08:40;;;;;;;3.33;2.40;;;;;;;19.40;100.00;97175.94;5032060;28;20222;-84
2021/10/02 12:11:09;;;;;;;4.33;2.30;;;;;;;19.26;100.00;97180.34;5032741;28;20665;-83
2021/10/02 12:13:39;;;;;;;2.90;1.97;;;;;;;18.94;100.00;97174.47;5045641;28;20205;-83
2021/10/02 12:16:10;;;;;;;4.80;1.70;;;;;;;18.73;100.00;97166.47;5052242;28;20194;-83
2021/10/02 12:18:46;;;;;;;2.27;1.80;;;;;;;18.56;100.00;97168.47;5051793;28;20577;-84
2021/10/02 12:21:15;;;;;;;7.13;1.83;;;;;;;19.20;100.00;97173.09;5049074;28;20209;-83
2021/10/02 12:23:54;;;;;;;2.37;2.00;;;;;;;19.91;100.00;97168.53;5049846;28;20281;-84
2021/10/02 12:26:21;;;;;;;2.83;1.80;;;;;;;20.18;100.00;97171.38;5051366;28;20193;-83
2021/10/02 12:28:48;;;;;;;2.30;2.00;;;;;;;19.69;100.00;97165.13;5051217;28;20232;-83
2021/10/02 12:31:17;;;;;;;4.10;1.80;;;;;;;19.39;100.00;97171.63;5051299;28;20205;-83
2021/10/02 12:33:44;;;;;;;2.30;1.50;;;;;;;19.11;100.00;97176.91;5051239;28;20212;-83
2021/10/02 12:36:11;;;;;;;6.90;1.77;;;;;;;19.05;100.00;97170.50;5051712;28;20189;-83
2021/10/02 12:38:43;;;;;;;2.00;1.80;;;;;;;19.07;100.00;97168.47;5051698;28;20205;-84
2021/10/02 12:41:11;;;;;;;3.37;1.83;;;;;;;18.97;100.00;97171.44;5051618;28;20210;-84